Time;durP1;ratioP1;P1;durP2;ratioP2;P2;SDS_P1;SDS_P2;PMS_P1;PMS_P2;Temp;Humidity;BMP_temperature;BMP_pressure;BME280_temperature;BME280_humidity;BME280_pressure;Samples;Min_cycle;Max_cycle;Signal;HPM_P1;HPM_P2
2023/01/21 00:00:58;;;;;;;463.10;438.77;;;-4.40;99.90;;;;;;5096006;28;20122;-77
2023/01/21 00:03:27;;;;;;;471.13;447.40;;;-4.60;99.90;;;;;;5098070;28;20029;-77
2023/01/21 00:05:54;;;;;;;362.20;344.40;;;-4.60;99.90;;;;;;5098907;28;20027;-77
2023/01/21 00:08:20;;;;;;;318.05;303.65;;;-4.70;99.90;;;;;;5099954;28;20035;-77
2023/01/21 00:10:45;;;;;;;782.45;517.67;;;-4.70;99.90;;;;;;5098421;28;20027;-77
2023/01/21 00:13:11;;;;;;;772.33;509.35;;;-4.70;99.90;;;;;;5102655;28;20106;-79
2023/01/21 00:15:36;;;;;;;750.95;489.38;;;-4.60;99.90;;;;;;5128668;27;20426;-77
2023/01/21 00:18:03;;;;;;;334.50;317.52;;;-4.60;99.90;;;;;;5098500;28;20040;-76
2023/01/21 00:20:29;;;;;;;453.48;432.15;;;-4.70;99.90;;;;;;5096603;28;20562;-79
2023/01/21 00:22:55;;;;;;;472.73;450.58;;;-4.80;99.90;;;;;;5095921;28;20043;-78
2023/01/21 00:25:21;;;;;;;480.45;456.13;;;-4.80;99.90;;;;;;5101208;28;20158;-78
2023/01/21 00:27:47;;;;;;;475.90;447.27;;;-4.90;99.90;;;;;;5095673;28;20035;-77
2023/01/21 00:30:13;;;;;;;492.25;468.77;;;-4.90;99.90;;;;;;5100130;28;20062;-78
2023/01/21 00:32:38;;;;;;;358.55;340.33;;;-4.90;99.90;;;;;;5099430;28;20039;-77
2023/01/21 00:35:05;;;;;;;376.40;357.13;;;-4.90;99.90;;;;;;5103675;28;20042;-78
2023/01/21 00:37:31;;;;;;;366.95;346.33;;;-4.80;99.90;;;;;;5100358;28;20105;-77
2023/01/21 00:39:56;;;;;;;389.92;369.95;;;-4.90;99.90;;;;;;5090886;28;20032;-78
2023/01/21 00:42:22;;;;;;;385.45;366.58;;;-4.90;99.90;;;;;;5095388;28;20044;-77
2023/01/21 00:44:48;;;;;;;313.83;297.88;;;-4.90;99.90;;;;;;5092566;28;20033;-78
2023/01/21 00:47:14;;;;;;;328.75;313.92;;;-4.90;99.90;;;;;;5103137;28;20480;-77
2023/01/21 00:49:39;;;;;;;329.38;314.85;;;-4.70;99.90;;;;;;5084693;28;20039;-78
2023/01/21 00:52:05;;;;;;;317.05;303.83;;;-4.80;99.90;;;;;;5080404;28;20028;-79
2023/01/21 00:54:34;;;;;;;332.38;317.55;;;-4.60;99.90;;;;;;5084245;28;20036;-79
2023/01/21 00:57:00;;;;;;;326.27;309.15;;;-4.60;99.90;;;;;;5091109;28;20790;-79
2023/01/21 00:59:27;;;;;;;328.58;313.77;;;-4.60;99.90;;;;;;5081536;28;20028;-78
2023/01/21 01:01:53;;;;;;;322.55;307.13;;;-4.60;99.90;;;;;;5080243;28;20719;-79
2023/01/21 01:04:19;;;;;;;307.75;293.25;;;-4.60;99.90;;;;;;5081070;28;20054;-78
2023/01/21 01:06:45;;;;;;;326.90;310.00;;;-4.80;99.90;;;;;;5088912;28;20044;-78
2023/01/21 01:09:11;;;;;;;280.15;266.65;;;-4.90;99.90;;;;;;5098284;28;20075;-78
2023/01/21 01:11:38;;;;;;;251.10;240.40;;;-5.00;99.90;;;;;;5100550;28;20043;-79
2023/01/21 01:14:04;;;;;;;302.23;288.23;;;-4.90;99.90;;;;;;5093909;28;20525;-79
2023/01/21 01:16:29;;;;;;;335.98;319.50;;;-4.90;99.90;;;;;;5098415;28;20036;-78
2023/01/21 01:18:55;;;;;;;317.48;302.30;;;-4.80;99.90;;;;;;5096605;28;20482;-78
2023/01/21 01:21:23;;;;;;;290.00;276.73;;;-4.80;99.90;;;;;;5096721;28;20077;-77
2023/01/21 01:23:53;;;;;;;277.40;263.55;;;-4.80;99.90;;;;;;5097491;28;20024;-77
2023/01/21 01:26:20;;;;;;;300.27;286.45;;;-4.80;99.90;;;;;;5093723;28;20031;-77
2023/01/21 01:28:46;;;;;;;302.85;289.20;;;-5.00;99.90;;;;;;5096564;28;20113;-77
2023/01/21 01:31:16;;;;;;;298.48;283.73;;;-5.00;99.90;;;;;;5075756;28;20028;-78
2023/01/21 01:33:42;;;;;;;261.75;248.18;;;-5.10;99.90;;;;;;5101350;28;20032;-78
2023/01/21 01:36:13;;;;;;;287.60;273.92;;;-5.10;99.90;;;;;;5097718;28;20111;-77
2023/01/21 01:38:38;;;;;;;291.65;276.48;;;-5.00;99.90;;;;;;5096311;28;20051;-78
2023/01/21 01:41:04;;;;;;;279.75;265.70;;;-4.90;99.90;;;;;;5090890;28;20078;-78
2023/01/21 01:43:57;;;;;;;261.48;248.73;;;-4.90;99.90;;;;;;5091816;28;20578;-77
2023/01/21 01:46:28;;;;;;;285.08;265.30;;;-4.80;99.90;;;;;;5096563;28;20023;-77
2023/01/21 01:49:11;;;;;;;239.02;227.15;;;-5.00;99.90;;;;;;5074470;28;20039;-77
2023/01/21 01:51:41;;;;;;;175.88;166.68;;;-5.10;99.90;;;;;;5102580;28;20036;-80
2023/01/21 01:54:09;;;;;;;229.75;219.95;;;-5.20;99.90;;;;;;5092912;28;20039;-79
2023/01/21 01:56:40;;;;;;;237.82;225.32;;;-5.00;99.90;;;;;;5100118;28;20392;-78
2023/01/21 01:59:06;;;;;;;213.95;202.63;;;-5.00;99.90;;;;;;5093379;28;20036;-77
2023/01/21 02:01:35;;;;;;;220.23;210.52;;;-5.10;99.90;;;;;;5103375;28;20042;-78
2023/01/21 02:04:06;;;;;;;203.77;193.60;;;-5.00;99.90;;;;;;5099418;28;20073;-80
2023/01/21 02:06:33;;;;;;;294.00;278.67;;;-5.00;99.90;;;;;;5093771;28;20032;-78
2023/01/21 02:08:59;;;;;;;312.67;292.42;;;-5.20;99.90;;;;;;5100639;28;20736;-79
2023/01/21 02:11:26;;;;;;;294.10;280.73;;;-5.30;99.90;;;;;;5091529;28;20025;-76
2023/01/21 02:13:55;;;;;;;289.55;276.20;;;-5.20;99.90;;;;;;5098681;28;20028;-79
2023/01/21 02:16:33;;;;;;;239.48;226.90;;;-5.30;99.90;;;;;;5096709;28;20111;-77
2023/01/21 02:19:17;;;;;;;241.15;228.85;;;-5.30;99.90;;;;;;5094894;28;20515;-77
2023/01/21 02:21:52;;;;;;;215.02;203.65;;;-5.30;99.90;;;;;;5097256;28;20047;-78
2023/01/21 02:24:33;;;;;;;219.50;208.85;;;-5.20;99.90;;;;;;5091319;28;20030;-80
2023/01/21 02:27:14;;;;;;;;;;;-5.10;99.90;;;;;;5100443;28;20020;-78
2023/01/21 02:30:21;;;;;;;88.25;82.35;;;-5.20;99.90;;;;;;5097823;28;19934;-78
2023/01/21 02:32:53;;;;;;;164.02;155.82;;;-5.50;99.90;;;;;;5104922;28;20073;-79
2023/01/21 02:35:48;;;;;;;196.10;176.80;;;-5.60;99.90;;;;;;5091412;28;20020;-80
2023/01/21 02:38:19;;;;;;;174.95;163.02;;;-5.60;99.90;;;;;;5105394;28;20024;-79
2023/01/21 02:41:09;;;;;;;207.63;194.88;;;-5.60;99.90;;;;;;5095085;28;20120;-77
2023/01/21 02:43:59;;;;;;;207.07;197.48;;;-5.60;99.90;;;;;;5103449;28;20081;-78
2023/01/21 02:46:56;;;;;;;176.50;168.60;;;-5.60;99.90;;;;;;5097582;28;20031;-80
2023/01/21 02:49:30;;;;;;;209.75;200.43;;;-5.40;99.90;;;;;;5097695;28;20031;-77
2023/01/21 02:51:55;;;;;;;225.30;215.00;;;-5.50;99.90;;;;;;5098992;28;20397;-78
2023/01/21 02:54:39;;;;;;;257.02;242.32;;;-5.40;99.90;;;;;;5098040;28;20546;-76
2023/01/21 02:57:09;;;;;;;265.13;252.52;;;-5.50;99.90;;;;;;5095413;28;20040;-78
2023/01/21 02:59:38;;;;;;;262.85;244.98;;;-5.50;99.90;;;;;;5101522;28;20036;-78
2023/01/21 03:02:22;;;;;;;210.63;198.57;;;-5.60;99.90;;;;;;5099736;28;20105;-78
2023/01/21 03:05:45;;;;;;;197.52;186.63;;;-5.50;99.90;;;;;;5092613;28;20032;-78
2023/01/21 03:08:21;;;;;;;143.82;134.93;;;-5.50;99.90;;;;;;5002725;28;20038;-79
2023/01/21 03:11:15;;;;;;;174.30;164.68;;;-5.40;99.90;;;;;;5022640;28;20031;-78
2023/01/21 03:16:59;;;;;;;156.57;148.43;;;-5.20;99.90;;;;;;5097965;28;20034;-80
2023/01/21 03:19:37;;;;;;;229.25;216.63;;;-5.20;99.90;;;;;;5097341;28;20052;-78
2023/01/21 03:22:08;;;;;;;271.15;257.08;;;-5.40;99.90;;;;;;5095811;28;20035;-79
2023/01/21 03:24:36;;;;;;;247.13;231.63;;;-5.40;99.90;;;;;;5101650;28;20024;-78
2023/01/21 03:27:05;;;;;;;277.75;263.95;;;-5.40;99.90;;;;;;5078126;28;20379;-77
2023/01/21 03:29:32;;;;;;;224.65;212.43;;;-5.50;99.90;;;;;;5102245;28;20028;-77
2023/01/21 03:32:03;;;;;;;183.10;174.27;;;-5.40;99.90;;;;;;5098723;28;20123;-77
2023/01/21 03:34:34;;;;;;;219.43;204.60;;;-5.40;99.90;;;;;;5101138;28;20035;-78
2023/01/21 03:37:11;;;;;;;246.43;231.77;;;-5.40;99.90;;;;;;5088450;28;20045;-77
2023/01/21 03:39:47;;;;;;;197.80;188.57;;;-5.40;99.90;;;;;;5098348;28;20078;-79
2023/01/21 03:42:14;;;;;;;185.32;177.40;;;-5.30;99.90;;;;;;5095513;28;20106;-81
2023/01/21 03:44:40;;;;;;;235.13;224.38;;;-5.30;99.90;;;;;;5074858;28;20028;-78
2023/01/21 03:47:30;;;;;;;343.40;327.98;;;-5.20;99.90;;;;;;5097753;28;20492;-78
2023/01/21 03:50:14;;;;;;;303.38;289.55;;;-5.40;99.90;;;;;;5093991;28;20393;-77
2023/01/21 03:52:42;;;;;;;267.13;254.77;;;-5.40;99.90;;;;;;5099942;28;20035;-77
2023/01/21 03:55:10;;;;;;;315.13;300.52;;;-5.50;99.90;;;;;;5098748;28;20035;-77
2023/01/21 03:57:36;;;;;;;314.50;298.15;;;-5.40;99.90;;;;;;5101108;28;20035;-78
2023/01/21 04:00:03;;;;;;;353.42;333.25;;;-5.50;99.90;;;;;;5101796;28;20382;-78
2023/01/21 04:02:29;;;;;;;243.80;232.88;;;-5.40;99.90;;;;;;5092985;28;20526;-77
2023/01/21 04:04:54;;;;;;;220.20;210.93;;;-5.30;99.90;;;;;;5100259;28;20039;-77
2023/01/21 04:07:20;;;;;;;253.50;241.38;;;-5.30;99.90;;;;;;5099222;28;20093;-80
2023/01/21 04:09:46;;;;;;;265.48;250.80;;;-5.30;99.90;;;;;;5101759;28;20030;-79
2023/01/21 04:12:12;;;;;;;241.60;221.88;;;-5.30;99.90;;;;;;5099646;28;20040;-77
2023/01/21 04:14:37;;;;;;;283.20;266.20;;;-5.30;99.90;;;;;;5093527;28;20028;-80
2023/01/21 04:17:03;;;;;;;278.42;261.38;;;-5.20;99.90;;;;;;5102445;28;20581;-78
2023/01/21 04:19:29;;;;;;;776.55;512.88;;;-5.20;99.90;;;;;;5089776;28;20048;-79
2023/01/21 04:21:55;;;;;;;295.42;281.60;;;-5.30;99.90;;;;;;5102381;28;20032;-78
2023/01/21 04:24:21;;;;;;;289.45;276.92;;;-5.30;99.90;;;;;;5078635;28;20504;-81
2023/01/21 04:26:46;;;;;;;404.20;369.05;;;-5.20;99.90;;;;;;5099813;28;20479;-79
2023/01/21 04:29:13;;;;;;;355.80;335.65;;;-5.00;99.90;;;;;;5101278;28;20028;-81
2023/01/21 04:31:38;;;;;;;348.55;332.48;;;-5.20;99.90;;;;;;5093897;28;20072;-78
2023/01/21 04:34:04;;;;;;;358.35;339.63;;;-5.30;99.90;;;;;;5095341;28;20165;-78
2023/01/21 04:36:29;;;;;;;427.15;403.65;;;-5.30;99.90;;;;;;5093710;28;20114;-80
2023/01/21 04:38:55;;;;;;;353.13;336.25;;;-5.30;99.90;;;;;;5102605;28;20040;-79
2023/01/21 04:41:21;;;;;;;310.65;295.65;;;-5.40;99.90;;;;;;5097815;28;20052;-80
2023/01/21 04:43:46;;;;;;;266.13;253.57;;;-5.60;99.90;;;;;;5096906;28;20126;-79
2023/01/21 04:46:12;;;;;;;261.20;248.50;;;-5.40;99.90;;;;;;5099437;28;20035;-79
2023/01/21 04:48:37;;;;;;;269.38;255.30;;;-5.40;99.90;;;;;;5092996;28;20548;-81
2023/01/21 04:51:05;;;;;;;256.60;245.82;;;-5.40;99.90;;;;;;5101310;28;20033;-80
2023/01/21 04:53:30;;;;;;;400.55;380.20;;;-5.30;99.90;;;;;;5094905;28;20028;-77
2023/01/21 04:55:56;;;;;;;254.43;242.85;;;-5.40;99.90;;;;;;5098277;28;20039;-78
2023/01/21 04:58:22;;;;;;;272.83;260.05;;;-5.30;99.90;;;;;;5094080;28;20039;-80
2023/01/21 05:00:48;;;;;;;331.75;316.70;;;-5.50;99.90;;;;;;5093392;28;20130;-78
2023/01/21 05:03:14;;;;;;;334.60;319.30;;;-5.60;99.90;;;;;;5097300;28;20035;-78
2023/01/21 05:05:39;;;;;;;318.15;302.40;;;-5.60;99.90;;;;;;5091700;28;20039;-79
2023/01/21 05:08:05;;;;;;;270.75;255.95;;;-5.50;99.90;;;;;;5101884;28;20032;-78
2023/01/21 05:10:31;;;;;;;261.85;250.05;;;-5.60;99.90;;;;;;5091844;28;20036;-79
2023/01/21 05:12:58;;;;;;;258.02;246.20;;;-5.50;99.90;;;;;;5081841;28;20568;-79
2023/01/21 05:15:23;;;;;;;256.73;244.27;;;-5.40;99.90;;;;;;5094437;28;20035;-79
2023/01/21 05:17:49;;;;;;;253.30;240.10;;;-5.40;99.90;;;;;;5097638;28;20062;-80
2023/01/21 05:20:16;;;;;;;312.05;297.50;;;-5.50;99.90;;;;;;5118859;28;20533;-78
2023/01/21 05:22:46;;;;;;;302.23;288.50;;;-5.70;99.90;;;;;;5087461;28;20047;-81
2023/01/21 05:25:12;;;;;;;293.17;279.80;;;-5.70;99.90;;;;;;5098021;28;20024;-80
2023/01/21 05:27:38;;;;;;;312.02;292.40;;;-5.80;99.90;;;;;;5095907;28;20024;-81
2023/01/21 05:30:05;;;;;;;252.43;238.05;;;-5.80;99.90;;;;;;5087921;28;20678;-78
2023/01/21 05:32:31;;;;;;;254.50;241.15;;;-5.70;99.90;;;;;;5097734;28;20060;-78
2023/01/21 05:34:57;;;;;;;215.60;205.80;;;-5.70;99.90;;;;;;5076798;28;20542;-78
2023/01/21 05:37:22;;;;;;;271.38;253.10;;;-5.70;99.90;;;;;;5098101;28;20043;-79
2023/01/21 05:39:50;;;;;;;253.88;240.95;;;-5.70;99.90;;;;;;5092057;28;20032;-80
2023/01/21 05:42:15;;;;;;;314.08;296.05;;;-5.70;99.90;;;;;;5098330;28;20031;-78
2023/01/21 05:44:41;;;;;;;268.10;255.38;;;-5.80;99.90;;;;;;5079905;28;20032;-79
2023/01/21 05:47:07;;;;;;;293.63;277.90;;;-5.90;99.90;;;;;;5077589;28;20040;-79
2023/01/21 05:49:34;;;;;;;246.45;231.45;;;-6.00;99.90;;;;;;5099378;28;20027;-80
2023/01/21 05:51:59;;;;;;;251.32;240.15;;;-6.00;99.90;;;;;;5090990;28;20024;-79
2023/01/21 05:54:25;;;;;;;227.20;215.98;;;-5.90;99.90;;;;;;5099920;28;20105;-77
2023/01/21 05:56:50;;;;;;;222.63;213.13;;;-5.90;99.90;;;;;;5098540;28;20032;-79
2023/01/21 05:59:16;;;;;;;233.77;222.70;;;-5.90;99.90;;;;;;5100911;28;20045;-78
2023/01/21 06:01:42;;;;;;;256.08;244.48;;;-5.80;99.90;;;;;;5096050;28;20115;-79
2023/01/21 06:04:07;;;;;;;289.10;273.33;;;-5.80;99.90;;;;;;5098067;28;20059;-78
2023/01/21 06:06:33;;;;;;;308.27;293.50;;;-5.90;99.90;;;;;;5102570;28;20036;-78
2023/01/21 06:08:58;;;;;;;294.67;282.10;;;-6.00;99.90;;;;;;5087745;28;20439;-80
2023/01/21 06:11:24;;;;;;;330.58;308.67;;;-6.00;99.90;;;;;;5099492;28;20385;-79
2023/01/21 06:13:50;;;;;;;267.23;253.40;;;-6.00;99.90;;;;;;5086367;28;20042;-78
2023/01/21 06:16:15;;;;;;;336.63;313.77;;;-6.10;99.90;;;;;;5091397;28;20512;-77
2023/01/21 06:18:41;;;;;;;229.80;216.65;;;-6.00;99.90;;;;;;5097566;28;20517;-80
2023/01/21 06:21:07;;;;;;;218.65;208.80;;;-5.90;99.90;;;;;;5091034;28;20570;-76
2023/01/21 06:23:32;;;;;;;217.65;206.95;;;-5.80;99.90;;;;;;5099373;28;20044;-76
2023/01/21 06:25:59;;;;;;;216.05;205.70;;;-5.90;99.90;;;;;;5101306;28;20028;-79
2023/01/21 06:28:25;;;;;;;207.18;197.20;;;-5.80;99.90;;;;;;5098436;28;20032;-78
2023/01/21 06:30:52;;;;;;;218.82;207.95;;;-5.80;99.90;;;;;;5095811;28;20031;-79
2023/01/21 06:33:18;;;;;;;365.75;347.88;;;-5.80;99.90;;;;;;5102411;28;20032;-78
2023/01/21 06:35:44;;;;;;;279.52;267.17;;;-5.60;99.90;;;;;;5103354;28;20700;-79
2023/01/21 06:38:09;;;;;;;258.65;247.27;;;-5.80;99.90;;;;;;5098111;28;20075;-77
2023/01/21 06:40:36;;;;;;;254.38;243.20;;;-5.80;99.90;;;;;;5101333;28;20722;-78
2023/01/21 06:43:01;;;;;;;256.20;244.50;;;-5.80;99.90;;;;;;5098541;28;20024;-79
2023/01/21 06:45:27;;;;;;;198.30;188.20;;;-5.70;99.90;;;;;;5100788;28;20032;-80
2023/01/21 06:47:53;;;;;;;205.57;196.35;;;-5.70;99.90;;;;;;5108265;28;20035;-79
2023/01/21 06:50:19;;;;;;;189.98;180.55;;;-5.60;99.90;;;;;;5103894;28;20153;-79
2023/01/21 06:52:46;;;;;;;198.50;188.40;;;-5.50;99.90;;;;;;5095441;28;20036;-77
2023/01/21 06:55:13;;;;;;;212.90;202.98;;;-5.50;99.90;;;;;;5091673;28;20039;-80
2023/01/21 06:57:39;;;;;;;254.02;242.85;;;-5.40;99.90;;;;;;5088330;28;20024;-82
2023/01/21 07:00:08;;;;;;;259.45;248.35;;;-5.40;99.90;;;;;;5095215;28;20055;-77
2023/01/21 07:02:33;;;;;;;246.57;235.50;;;-5.50;99.90;;;;;;5092119;28;20498;-78
2023/01/21 07:04:59;;;;;;;172.23;164.05;;;-5.50;99.90;;;;;;5090211;28;20036;-77
2023/01/21 07:07:25;;;;;;;194.90;185.18;;;-5.40;99.90;;;;;;5091702;28;20081;-78
2023/01/21 07:09:51;;;;;;;218.88;207.98;;;-5.30;99.90;;;;;;5096815;28;20027;-79
2023/01/21 07:12:18;;;;;;;159.05;149.98;;;-5.20;99.90;;;;;;5098804;28;20506;-77
2023/01/21 07:14:44;;;;;;;166.93;158.60;;;-5.30;99.90;;;;;;5095789;28;20031;-77
2023/01/21 07:17:10;;;;;;;253.30;241.73;;;-5.20;99.90;;;;;;5090873;28;20043;-80
2023/01/21 07:19:36;;;;;;;160.93;153.10;;;-5.20;99.90;;;;;;5094006;28;20058;-78
2023/01/21 07:22:01;;;;;;;168.50;161.05;;;-5.20;99.90;;;;;;5092924;28;20044;-79
2023/01/21 07:24:27;;;;;;;229.50;219.32;;;-5.20;99.90;;;;;;5090779;28;20039;-77
2023/01/21 07:26:53;;;;;;;230.27;220.85;;;-5.10;99.90;;;;;;5089020;28;20111;-78
2023/01/21 07:29:19;;;;;;;205.80;196.73;;;-5.00;99.90;;;;;;5094597;28;20028;-79
2023/01/21 07:31:45;;;;;;;194.27;184.18;;;-5.00;99.90;;;;;;5093967;28;20032;-78
2023/01/21 07:34:11;;;;;;;183.50;175.07;;;-4.90;99.90;;;;;;5092300;28;20074;-78
2023/01/21 07:36:36;;;;;;;261.05;248.80;;;-4.90;99.90;;;;;;5091717;28;20024;-80
2023/01/21 07:39:04;;;;;;;331.65;314.17;;;-4.80;99.90;;;;;;5092053;28;20047;-80
2023/01/21 07:41:29;;;;;;;158.25;150.57;;;-5.00;99.90;;;;;;5084782;28;20381;-80
2023/01/21 07:43:55;;;;;;;247.63;235.35;;;-4.90;99.90;;;;;;5086596;28;20016;-80
2023/01/21 07:46:22;;;;;;;223.10;212.85;;;-4.80;99.90;;;;;;5089549;28;20625;-81
2023/01/21 07:48:51;;;;;;;300.08;286.83;;;-4.70;99.90;;;;;;5094623;28;20020;-80
2023/01/21 07:51:18;;;;;;;193.85;184.32;;;-4.70;99.90;;;;;;5083549;28;20452;-81
2023/01/21 07:53:44;;;;;;;165.75;158.63;;;-4.80;99.90;;;;;;5078798;28;20089;-80
2023/01/21 07:56:10;;;;;;;241.32;229.73;;;-4.80;99.90;;;;;;5075960;28;20024;-80
2023/01/21 07:58:36;;;;;;;242.60;232.38;;;-4.70;99.90;;;;;;5084375;28;20482;-81
2023/01/21 08:01:07;;;;;;;180.93;171.65;;;-4.60;99.90;;;;;;5078987;28;20040;-80
2023/01/21 08:03:35;;;;;;;265.17;254.05;;;-4.60;99.90;;;;;;5079385;28;20046;-81
2023/01/21 08:06:02;;;;;;;282.58;270.08;;;-4.40;99.90;;;;;;5082356;28;20401;-80
2023/01/21 08:08:28;;;;;;;300.20;286.60;;;-4.40;99.90;;;;;;5073458;28;20039;-80
2023/01/21 08:10:57;;;;;;;392.70;375.85;;;-4.30;99.90;;;;;;5077109;28;20048;-80
2023/01/21 08:13:23;;;;;;;335.20;320.15;;;-4.40;99.90;;;;;;5077141;28;20486;-80
2023/01/21 08:15:54;;;;;;;358.50;341.73;;;-4.40;99.90;;;;;;5078608;28;20028;-82
2023/01/21 08:18:21;;;;;;;296.02;283.05;;;-4.40;99.90;;;;;;5080348;28;20028;-80
2023/01/21 08:20:54;;;;;;;240.57;231.15;;;-4.30;99.90;;;;;;5080044;28;20064;-81
2023/01/21 08:23:20;;;;;;;329.98;315.65;;;-4.30;99.90;;;;;;5084002;28;20424;-82
2023/01/21 08:25:47;;;;;;;347.75;332.42;;;-4.30;99.90;;;;;;5079610;28;20486;-82
2023/01/21 08:28:13;;;;;;;296.20;284.15;;;-4.30;99.90;;;;;;5084601;28;20431;-81
2023/01/21 08:30:40;;;;;;;335.08;320.83;;;-4.20;99.90;;;;;;5086285;28;20032;-83
2023/01/21 08:33:05;;;;;;;285.23;273.20;;;-4.10;99.90;;;;;;5097419;27;20383;-82
2023/01/21 08:35:31;;;;;;;306.85;293.55;;;-4.00;99.90;;;;;;5087502;28;20077;-81
2023/01/21 08:37:58;;;;;;;349.77;334.30;;;-4.00;99.90;;;;;;5085209;28;20032;-82
2023/01/21 08:40:26;;;;;;;375.75;360.17;;;-4.10;99.90;;;;;;5076850;28;20060;-82
2023/01/21 08:43:02;;;;;;;431.42;411.25;;;-4.00;99.90;;;;;;5079430;28;20042;-80
2023/01/21 08:45:31;;;;;;;357.17;341.55;;;-4.00;99.90;;;;;;5088132;28;20514;-83
2023/01/21 08:47:57;;;;;;;359.80;344.30;;;-4.00;99.90;;;;;;5092337;28;20063;-74
2023/01/21 08:50:35;;;;;;;335.63;321.88;;;-3.80;99.90;;;;;;5089643;28;20028;-85
2023/01/21 08:53:01;;;;;;;352.77;335.05;;;-3.90;99.90;;;;;;5084490;28;20146;-86
2023/01/21 08:55:27;;;;;;;359.80;344.33;;;-3.80;99.90;;;;;;5086451;28;20509;-84
2023/01/21 08:57:54;;;;;;;319.75;305.77;;;-3.70;99.90;;;;;;5087896;28;20067;-85
2023/01/21 09:00:22;;;;;;;366.83;350.65;;;-3.60;99.90;;;;;;5091652;28;20030;-86
2023/01/21 09:02:49;;;;;;;364.13;347.85;;;-3.50;99.90;;;;;;5086776;28;20565;-85
2023/01/21 09:05:14;;;;;;;236.15;226.88;;;-3.40;99.90;;;;;;5088901;28;20045;-86
2023/01/21 09:07:40;;;;;;;376.05;358.90;;;-3.40;99.90;;;;;;5089011;28;20046;-82
2023/01/21 09:10:59;;;;;;;338.48;323.13;;;-3.30;99.90;;;;;;5081593;28;20093;-90
2023/01/21 09:13:02;;;;;;;272.00;260.63;;;-3.20;99.90;;;;;;5087411;28;20036;-87
2023/01/21 09:15:27;;;;;;;442.02;413.33;;;-3.10;99.90;;;;;;5085562;28;20027;-87
2023/01/21 09:17:53;;;;;;;316.45;300.88;;;-3.10;99.90;;;;;;5085681;28;20144;-88
2023/01/21 09:20:19;;;;;;;271.55;259.70;;;-2.90;99.90;;;;;;5082438;28;20455;-88
2023/01/21 09:22:44;;;;;;;351.80;336.42;;;-2.80;99.90;;;;;;5085909;28;20115;-88
2023/01/21 09:25:10;;;;;;;230.20;220.43;;;-2.70;99.90;;;;;;5082080;28;20375;-87
2023/01/21 09:27:36;;;;;;;321.15;306.75;;;-2.60;99.90;;;;;;5083348;28;20052;-88
2023/01/21 09:30:02;;;;;;;285.45;272.23;;;-2.70;99.90;;;;;;5081435;28;20024;-88
2023/01/21 09:32:28;;;;;;;195.70;187.18;;;-2.60;99.90;;;;;;5082378;28;20032;-87
2023/01/21 09:34:55;;;;;;;241.60;230.23;;;-2.40;99.90;;;;;;5092769;28;20028;-87
2023/01/21 09:37:21;;;;;;;321.15;305.15;;;-2.50;99.90;;;;;;5086898;28;20028;-87
2023/01/21 09:39:47;;;;;;;205.82;197.20;;;-2.40;99.90;;;;;;5094358;28;20032;-73
2023/01/21 09:42:25;;;;;;;331.92;316.65;;;-2.30;99.90;;;;;;5089500;28;20032;-81
2023/01/21 09:44:53;;;;;;;177.77;169.45;;;-2.30;99.90;;;;;;5086657;28;20047;-79
2023/01/21 09:47:21;;;;;;;140.32;133.95;;;-2.50;99.90;;;;;;5082140;28;20073;-79
2023/01/21 09:50:19;;;;;;;240.70;229.30;;;-2.70;99.90;;;;;;5098022;28;20093;-78
2023/01/21 09:52:46;;;;;;;208.18;198.55;;;-2.70;99.90;;;;;;5097911;28;20035;-79
2023/01/21 09:55:22;;;;;;;256.70;245.00;;;-2.50;99.90;;;;;;5091431;28;20122;-80
2023/01/21 09:58:10;;;;;;;296.85;282.33;;;-2.50;99.90;;;;;;5085087;28;20509;-80
2023/01/21 10:01:07;;;;;;;215.00;204.60;;;-2.30;99.90;;;;;;5089654;28;20111;-80
2023/01/21 10:03:42;;;;;;;288.58;274.63;;;-2.30;99.90;;;;;;5083947;28;20160;-80
2023/01/21 10:06:26;;;;;;;235.25;224.63;;;-2.40;99.90;;;;;;5089538;28;20031;-79
2023/01/21 10:09:18;;;;;;;220.00;209.18;;;-2.30;99.90;;;;;;5093774;28;20059;-81
2023/01/21 10:12:16;;;;;;;156.43;149.75;;;-2.30;99.90;;;;;;5088128;28;20058;-81
2023/01/21 10:15:00;;;;;;;172.55;164.82;;;-2.30;99.90;;;;;;5090776;28;20428;-78
2023/01/21 10:17:32;;;;;;;250.65;239.63;;;-2.00;99.90;;;;;;5093121;28;20044;-79
2023/01/21 10:20:22;;;;;;;244.13;232.07;;;-2.10;99.90;;;;;;5097976;28;20048;-79
2023/01/21 10:23:06;;;;;;;235.02;224.25;;;-2.00;99.90;;;;;;5091134;28;20024;-81
2023/01/21 10:25:34;;;;;;;197.52;188.32;;;-1.70;99.90;;;;;;5098277;28;20792;-78
2023/01/21 10:28:17;;;;;;;253.55;239.75;;;-1.80;99.90;;;;;;5092000;28;20029;-81
2023/01/21 10:30:47;;;;;;;183.90;175.10;;;-1.60;99.90;;;;;;5094503;28;20032;-80
2023/01/21 10:33:22;;;;;;;254.38;242.77;;;-1.60;99.90;;;;;;5083218;28;20031;-80
2023/01/21 10:36:15;;;;;;;236.93;225.25;;;-1.90;99.90;;;;;;5089534;28;20046;-81
2023/01/21 10:39:04;;;;;;;145.65;138.23;;;-1.80;99.90;;;;;;5090326;28;20488;-80
2023/01/21 10:41:44;;;;;;;236.20;224.45;;;-1.90;99.90;;;;;;5085525;28;20031;-78
2023/01/21 10:44:44;;;;;;;211.70;201.73;;;-2.00;99.90;;;;;;5091610;28;20410;-78
2023/01/21 10:47:24;;;;;;;122.15;116.40;;;-1.90;99.90;;;;;;5100999;28;20027;-81
2023/01/21 10:50:17;;;;;;;190.02;180.60;;;-1.70;99.90;;;;;;5097114;28;20020;-82
2023/01/21 10:53:13;;;;;;;168.73;161.05;;;-1.80;99.90;;;;;;5100569;28;20036;-80
2023/01/21 10:55:52;;;;;;;129.32;123.22;;;-1.70;99.90;;;;;;5099208;28;20044;-82
2023/01/21 10:58:31;;;;;;;279.45;265.80;;;-1.80;99.90;;;;;;5098066;28;20027;-81
2023/01/21 11:01:03;;;;;;;173.18;164.68;;;-1.90;99.90;;;;;;5100740;28;20102;-80
2023/01/21 11:03:46;;;;;;;158.57;151.60;;;-1.90;99.90;;;;;;5088964;28;20440;-83
2023/01/21 11:06:14;;;;;;;251.27;238.30;;;-2.00;99.90;;;;;;5095065;28;20374;-75
2023/01/21 11:08:43;;;;;;;171.88;164.00;;;-1.80;99.90;;;;;;5090241;28;20054;-74
2023/01/21 11:11:16;;;;;;;234.02;222.10;;;-1.70;99.90;;;;;;5086838;28;20032;-80
2023/01/21 11:13:43;;;;;;;360.35;342.95;;;-1.60;99.90;;;;;;5090632;28;20405;-79
2023/01/21 11:16:09;;;;;;;159.73;152.02;;;-1.40;99.90;;;;;;5064956;28;20111;-81
2023/01/21 11:18:39;;;;;;;257.58;243.60;;;-1.20;99.90;;;;;;5090947;28;20131;-79
2023/01/21 11:21:15;;;;;;;;;;;-1.30;99.90;;;;;;5092275;28;20044;-80
2023/01/21 11:23:40;;;;;;;161.38;149.32;;;-1.20;99.90;;;;;;5096214;28;19951;-81
2023/01/21 11:26:20;;;;;;;131.52;125.90;;;-1.30;99.90;;;;;;5071374;28;20052;-80
2023/01/21 11:28:45;;;;;;;127.88;122.20;;;-1.30;99.90;;;;;;5089107;28;20109;-81
2023/01/21 11:31:22;;;;;;;163.50;156.18;;;-1.40;99.90;;;;;;5087796;28;20121;-80
2023/01/21 11:33:48;;;;;;;145.82;137.93;;;-1.50;99.90;;;;;;5088890;28;20036;-80
2023/01/21 11:36:19;;;;;;;147.90;140.70;;;-1.40;99.90;;;;;;5071415;28;20413;-79
2023/01/21 11:38:58;;;;;;;140.75;133.95;;;-1.40;99.90;;;;;;5094563;28;20034;-80
2023/01/21 11:41:24;;;;;;;169.82;161.55;;;-1.60;99.90;;;;;;5093323;28;20039;-80
2023/01/21 11:43:53;;;;;;;155.18;145.10;;;-1.60;99.90;;;;;;5089909;28;20027;-80
2023/01/21 11:46:21;;;;;;;154.07;146.07;;;-1.70;99.90;;;;;;5091715;28;20165;-80
2023/01/21 11:48:47;;;;;;;173.85;163.80;;;-1.70;99.90;;;;;;5101476;28;20051;-80
2023/01/21 11:51:16;;;;;;;117.03;111.82;;;-1.60;99.90;;;;;;5091113;28;20490;-81
2023/01/21 11:53:42;;;;;;;145.75;138.55;;;-1.60;99.90;;;;;;5092114;28;20025;-81
2023/01/21 11:56:08;;;;;;;163.93;155.35;;;-1.40;99.90;;;;;;5090866;28;20032;-82
2023/01/21 11:58:35;;;;;;;161.70;152.80;;;-1.60;99.90;;;;;;5099750;28;20039;-80
2023/01/21 12:01:05;;;;;;;228.95;214.68;;;-1.60;99.90;;;;;;5082138;28;20028;-80
2023/01/21 12:03:55;;;;;;;169.27;161.50;;;-1.60;99.90;;;;;;5089330;28;20393;-81
2023/01/21 12:06:31;;;;;;;199.20;190.23;;;-1.40;99.90;;;;;;5074982;28;20032;-81
2023/01/21 12:09:02;;;;;;;135.32;129.30;;;-1.20;99.90;;;;;;5076686;28;20335;-81
2023/01/21 12:11:31;;;;;;;153.25;144.70;;;-1.00;99.90;;;;;;5080856;28;20525;-80
2023/01/21 12:14:19;;;;;;;155.85;148.35;;;-1.00;99.90;;;;;;5087890;28;20032;-80
2023/01/21 12:17:05;;;;;;;178.20;170.30;;;-1.00;99.90;;;;;;5086622;28;20024;-79
2023/01/21 12:20:04;;;;;;;106.22;100.00;;;-1.10;99.90;;;;;;5123933;27;20093;-80
2023/01/21 12:23:05;;;;;;;184.90;176.65;;;-1.30;99.90;;;;;;5094978;27;20035;-81
2023/01/21 12:25:50;;;;;;;167.23;159.35;;;-1.30;99.90;;;;;;5088385;28;20043;-80
2023/01/21 12:29:17;;;;;;;141.38;134.68;;;-1.40;99.90;;;;;;5087626;28;20056;-81